Hauptseite
METAR-TAF:

METAR-TAF

Flughäfen :

Heeresflugplatz Fritzlar

Fritzlar, Deutschland

Breite: 51-07N, Länge: 009-17E, Höhe: 172 m

Beobachtung

Neuester Wetterbericht von vor 54 Minuten, um 02:20 UTC
Wind 2 kt aus unterschiedlichen Richtungen
Temperatur 15°C
Luftfeuchtigkeit 94%
Luftdruck 1009 hPa
Sichtweite 10 km oder mehr
Flacher Nebel

METAR: ETHF 250220Z VRB02KT 9999 MIFG 15/14 Q1009 BLU+

Zeit: 05:14 (03:14 UTC)


TAF: fehlend

Wetterbeobachtungen und Prognosen von mehr als 4000 Flughäfen (METAR und TAF Bericht).

Die verfügbaren Stationen werden durch gelbe und rote Markierungen auf der Karte dargestellt.

Führen Sie die Maus auf sie, um den Namen der Station zu sehen.

Darauf klicken, um die Beobachtung von Wetterbeobachtungen und Prognosen zu sehen.

Um die Karte zu ändern : klicken Sie auf den grünen Tasten mit einem schwarzen Kreuz Zum Vergrößern, auf den grünen Button mit einem Gedankenstrich zu verkleinern, oder auf die grünen Pfeile für benachbarte Karten.


METAR-TAF: